sensor_id;sensor_type;location;lat;lon;timestamp;P1;durP1;ratioP1;P2;durP2;ratioP2
62435;SDS011;48480;50.252;18.848;2023-04-05T00:00:28;87.90;;;39.00;;
62435;SDS011;48480;50.252;18.848;2023-04-05T00:02:56;98.60;;;40.40;;
62435;SDS011;48480;50.252;18.848;2023-04-05T00:05:24;95.60;;;40.80;;
62435;SDS011;48480;50.252;18.848;2023-04-05T00:07:57;94.70;;;42.30;;
62435;SDS011;48480;50.252;18.848;2023-04-05T00:10:25;89.20;;;40.60;;
62435;SDS011;48480;50.252;18.848;2023-04-05T00:12:51;76.70;;;34.10;;
62435;SDS011;48480;50.252;18.848;2023-04-05T00:15:16;76.20;;;34.50;;
62435;SDS011;48480;50.252;18.848;2023-04-05T00:17:42;84.40;;;37.90;;
62435;SDS011;48480;50.252;18.848;2023-04-05T00:20:10;85.00;;;38.80;;
62435;SDS011;48480;50.252;18.848;2023-04-05T00:22:36;76.90;;;35.00;;
62435;SDS011;48480;50.252;18.848;2023-04-05T00:25:02;75.90;;;33.90;;
62435;SDS011;48480;50.252;18.848;2023-04-05T00:27:29;72.10;;;32.00;;
62435;SDS011;48480;50.252;18.848;2023-04-05T00:29:55;73.60;;;32.60;;
62435;SDS011;48480;50.252;18.848;2023-04-05T00:32:21;76.30;;;33.80;;
62435;SDS011;48480;50.252;18.848;2023-04-05T00:34:48;75.50;;;33.50;;
62435;SDS011;48480;50.252;18.848;2023-04-05T00:37:14;72.10;;;32.50;;
62435;SDS011;48480;50.252;18.848;2023-04-05T00:39:40;73.20;;;32.20;;
62435;SDS011;48480;50.252;18.848;2023-04-05T00:42:06;73.20;;;34.50;;
62435;SDS011;48480;50.252;18.848;2023-04-05T00:44:33;77.80;;;34.30;;
62435;SDS011;48480;50.252;18.848;2023-04-05T00:47:03;71.30;;;36.00;;
62435;SDS011;48480;50.252;18.848;2023-04-05T00:49:35;87.00;;;36.00;;
62435;SDS011;48480;50.252;18.848;2023-04-05T00:52:02;74.00;;;34.70;;
62435;SDS011;48480;50.252;18.848;2023-04-05T00:54:29;76.40;;;34.20;;
62435;SDS011;48480;50.252;18.848;2023-04-05T00:56:58;81.90;;;32.10;;
62435;SDS011;48480;50.252;18.848;2023-04-05T00:59:24;86.10;;;37.00;;
62435;SDS011;48480;50.252;18.848;2023-04-05T01:02:00;83.00;;;37.10;;
62435;SDS011;48480;50.252;18.848;2023-04-05T01:04:31;83.10;;;36.00;;
62435;SDS011;48480;50.252;18.848;2023-04-05T01:12:09;76.00;;;35.00;;
62435;SDS011;48480;50.252;18.848;2023-04-05T01:17:15;82.30;;;32.20;;
62435;SDS011;48480;50.252;18.848;2023-04-05T01:19:50;83.30;;;38.20;;
62435;SDS011;48480;50.252;18.848;2023-04-05T01:28:17;83.40;;;35.80;;
62435;SDS011;48480;50.252;18.848;2023-04-05T01:33:43;85.70;;;37.10;;
62435;SDS011;48480;50.252;18.848;2023-04-05T01:36:20;79.30;;;35.80;;
62435;SDS011;48480;50.252;18.848;2023-04-05T01:38:51;71.80;;;34.00;;
62435;SDS011;48480;50.252;18.848;2023-04-05T01:41:18;86.10;;;36.50;;
62435;SDS011;48480;50.252;18.848;2023-04-05T01:43:45;76.60;;;33.50;;
62435;SDS011;48480;50.252;18.848;2023-04-05T01:46:11;72.90;;;33.80;;
62435;SDS011;48480;50.252;18.848;2023-04-05T01:48:36;67.20;;;32.40;;
62435;SDS011;48480;50.252;18.848;2023-04-05T01:51:01;61.20;;;30.50;;
62435;SDS011;48480;50.252;18.848;2023-04-05T01:53:27;71.80;;;31.80;;
62435;SDS011;48480;50.252;18.848;2023-04-05T01:55:52;68.10;;;31.90;;
62435;SDS011;48480;50.252;18.848;2023-04-05T01:58:17;70.30;;;32.50;;
62435;SDS011;48480;50.252;18.848;2023-04-05T02:00:43;79.60;;;32.60;;
62435;SDS011;48480;50.252;18.848;2023-04-05T02:03:08;71.20;;;31.10;;
62435;SDS011;48480;50.252;18.848;2023-04-05T02:05:34;73.70;;;34.50;;
62435;SDS011;48480;50.252;18.848;2023-04-05T02:07:59;74.90;;;33.40;;
62435;SDS011;48480;50.252;18.848;2023-04-05T02:10:25;76.00;;;34.10;;
62435;SDS011;48480;50.252;18.848;2023-04-05T02:12:50;74.50;;;33.70;;
62435;SDS011;48480;50.252;18.848;2023-04-05T02:15:16;74.20;;;33.40;;
62435;SDS011;48480;50.252;18.848;2023-04-05T02:17:41;73.60;;;33.70;;
62435;SDS011;48480;50.252;18.848;2023-04-05T02:20:09;66.80;;;32.70;;
62435;SDS011;48480;50.252;18.848;2023-04-05T02:22:36;78.80;;;34.90;;
62435;SDS011;48480;50.252;18.848;2023-04-05T02:25:04;79.90;;;35.70;;
62435;SDS011;48480;50.252;18.848;2023-04-05T02:27:33;64.10;;;30.30;;
62435;SDS011;48480;50.252;18.848;2023-04-05T02:29:59;69.30;;;33.60;;
62435;SDS011;48480;50.252;18.848;2023-04-05T02:32:25;62.70;;;31.80;;
62435;SDS011;48480;50.252;18.848;2023-04-05T02:34:51;71.40;;;33.30;;
62435;SDS011;48480;50.252;18.848;2023-04-05T02:37:20;74.20;;;35.60;;
62435;SDS011;48480;50.252;18.848;2023-04-05T02:39:45;83.40;;;35.40;;
62435;SDS011;48480;50.252;18.848;2023-04-05T02:42:11;93.20;;;40.40;;
62435;SDS011;48480;50.252;18.848;2023-04-05T02:44:36;84.50;;;39.40;;
62435;SDS011;48480;50.252;18.848;2023-04-05T02:47:01;96.70;;;42.50;;
62435;SDS011;48480;50.252;18.848;2023-04-05T02:49:27;100.90;;;42.10;;
62435;SDS011;48480;50.252;18.848;2023-04-05T02:51:52;100.50;;;41.60;;
62435;SDS011;48480;50.252;18.848;2023-04-05T02:54:19;101.30;;;44.40;;
62435;SDS011;48480;50.252;18.848;2023-04-05T02:56:45;103.10;;;44.00;;
62435;SDS011;48480;50.252;18.848;2023-04-05T02:59:11;101.70;;;44.10;;
62435;SDS011;48480;50.252;18.848;2023-04-05T03:01:37;111.80;;;46.50;;
62435;SDS011;48480;50.252;18.848;2023-04-05T03:04:08;105.80;;;47.20;;
62435;SDS011;48480;50.252;18.848;2023-04-05T03:06:38;99.10;;;44.80;;
62435;SDS011;48480;50.252;18.848;2023-04-05T03:09:13;100.70;;;44.30;;
62435;SDS011;48480;50.252;18.848;2023-04-05T03:11:39;98.30;;;46.40;;
62435;SDS011;48480;50.252;18.848;2023-04-05T03:14:04;84.40;;;39.80;;
62435;SDS011;48480;50.252;18.848;2023-04-05T03:16:30;95.00;;;43.70;;
62435;SDS011;48480;50.252;18.848;2023-04-05T03:18:55;79.70;;;38.00;;
62435;SDS011;48480;50.252;18.848;2023-04-05T03:21:21;85.10;;;37.70;;
62435;SDS011;48480;50.252;18.848;2023-04-05T03:23:47;83.10;;;39.00;;
62435;SDS011;48480;50.252;18.848;2023-04-05T03:26:14;90.70;;;41.20;;
62435;SDS011;48480;50.252;18.848;2023-04-05T03:28:40;87.90;;;38.80;;
62435;SDS011;48480;50.252;18.848;2023-04-05T03:31:09;83.70;;;38.60;;
62435;SDS011;48480;50.252;18.848;2023-04-05T03:33:35;63.80;;;32.10;;
62435;SDS011;48480;50.252;18.848;2023-04-05T03:36:01;69.40;;;33.30;;
62435;SDS011;48480;50.252;18.848;2023-04-05T03:38:27;69.50;;;33.90;;
62435;SDS011;48480;50.252;18.848;2023-04-05T03:40:52;71.00;;;32.80;;
62435;SDS011;48480;50.252;18.848;2023-04-05T03:43:18;68.40;;;32.40;;
62435;SDS011;48480;50.252;18.848;2023-04-05T03:45:44;75.60;;;32.30;;
62435;SDS011;48480;50.252;18.848;2023-04-05T03:48:09;72.60;;;31.20;;
62435;SDS011;48480;50.252;18.848;2023-04-05T03:50:35;62.30;;;29.60;;
62435;SDS011;48480;50.252;18.848;2023-04-05T03:53:01;60.10;;;30.70;;
62435;SDS011;48480;50.252;18.848;2023-04-05T03:55:27;65.50;;;31.00;;
62435;SDS011;48480;50.252;18.848;2023-04-05T03:57:52;70.10;;;31.80;;
62435;SDS011;48480;50.252;18.848;2023-04-05T04:00:18;60.40;;;29.90;;
62435;SDS011;48480;50.252;18.848;2023-04-05T04:02:47;66.50;;;29.80;;
62435;SDS011;48480;50.252;18.848;2023-04-05T04:05:12;78.00;;;36.00;;
62435;SDS011;48480;50.252;18.848;2023-04-05T04:07:39;84.60;;;35.00;;
62435;SDS011;48480;50.252;18.848;2023-04-05T04:10:06;81.20;;;36.00;;
62435;SDS011;48480;50.252;18.848;2023-04-05T04:12:32;76.10;;;32.00;;
62435;SDS011;48480;50.252;18.848;2023-04-05T04:14:58;79.60;;;33.70;;
62435;SDS011;48480;50.252;18.848;2023-04-05T04:19:54;81.70;;;34.40;;
62435;SDS011;48480;50.252;18.848;2023-04-05T04:22:20;63.90;;;31.10;;
62435;SDS011;48480;50.252;18.848;2023-04-05T04:24:46;62.80;;;30.10;;
62435;SDS011;48480;50.252;18.848;2023-04-05T04:27:17;55.00;;;28.60;;
62435;SDS011;48480;50.252;18.848;2023-04-05T04:29:42;60.50;;;28.60;;
62435;SDS011;48480;50.252;18.848;2023-04-05T04:32:15;53.80;;;29.00;;
62435;SDS011;48480;50.252;18.848;2023-04-05T04:34:44;61.10;;;29.80;;
62435;SDS011;48480;50.252;18.848;2023-04-05T04:37:13;57.90;;;29.10;;
62435;SDS011;48480;50.252;18.848;2023-04-05T04:39:44;60.70;;;28.70;;
62435;SDS011;48480;50.252;18.848;2023-04-05T04:42:12;57.00;;;28.20;;
62435;SDS011;48480;50.252;18.848;2023-04-05T04:44:37;54.20;;;28.10;;
62435;SDS011;48480;50.252;18.848;2023-04-05T04:47:03;53.20;;;27.20;;
62435;SDS011;48480;50.252;18.848;2023-04-05T04:49:37;50.50;;;25.90;;
62435;SDS011;48480;50.252;18.848;2023-04-05T04:52:05;58.70;;;28.50;;
62435;SDS011;48480;50.252;18.848;2023-04-05T04:54:31;57.70;;;29.00;;
62435;SDS011;48480;50.252;18.848;2023-04-05T04:56:58;59.90;;;29.50;;
62435;SDS011;48480;50.252;18.848;2023-04-05T04:59:26;50.40;;;27.90;;
62435;SDS011;48480;50.252;18.848;2023-04-05T05:01:51;50.80;;;25.90;;
62435;SDS011;48480;50.252;18.848;2023-04-05T05:04:17;53.20;;;27.80;;
62435;SDS011;48480;50.252;18.848;2023-04-05T05:06:42;47.20;;;24.70;;
62435;SDS011;48480;50.252;18.848;2023-04-05T05:09:08;54.10;;;26.10;;
62435;SDS011;48480;50.252;18.848;2023-04-05T05:11:33;46.40;;;25.20;;
62435;SDS011;48480;50.252;18.848;2023-04-05T05:13:58;49.60;;;25.00;;
62435;SDS011;48480;50.252;18.848;2023-04-05T05:16:24;46.20;;;25.00;;
62435;SDS011;48480;50.252;18.848;2023-04-05T05:18:51;52.30;;;26.70;;
62435;SDS011;48480;50.252;18.848;2023-04-05T05:21:16;58.50;;;27.80;;
62435;SDS011;48480;50.252;18.848;2023-04-05T05:23:42;57.10;;;27.80;;
62435;SDS011;48480;50.252;18.848;2023-04-05T05:26:07;52.20;;;27.70;;
62435;SDS011;48480;50.252;18.848;2023-04-05T05:28:32;63.40;;;33.40;;
62435;SDS011;48480;50.252;18.848;2023-04-05T05:30:58;58.90;;;29.80;;
62435;SDS011;48480;50.252;18.848;2023-04-05T05:33:23;69.80;;;33.40;;
62435;SDS011;48480;50.252;18.848;2023-04-05T05:35:50;63.20;;;31.90;;
62435;SDS011;48480;50.252;18.848;2023-04-05T05:38:16;79.80;;;37.20;;
62435;SDS011;48480;50.252;18.848;2023-04-05T05:40:42;79.40;;;38.80;;
62435;SDS011;48480;50.252;18.848;2023-04-05T05:43:08;68.80;;;37.40;;
62435;SDS011;48480;50.252;18.848;2023-04-05T05:45:35;84.20;;;41.40;;
62435;SDS011;48480;50.252;18.848;2023-04-05T05:48:00;93.60;;;52.70;;
62435;SDS011;48480;50.252;18.848;2023-04-05T05:50:26;84.60;;;39.60;;
62435;SDS011;48480;50.252;18.848;2023-04-05T05:52:56;83.10;;;37.70;;
62435;SDS011;48480;50.252;18.848;2023-04-05T05:55:22;79.80;;;37.60;;
62435;SDS011;48480;50.252;18.848;2023-04-05T05:57:47;73.30;;;35.20;;
62435;SDS011;48480;50.252;18.848;2023-04-05T06:00:14;53.60;;;28.10;;
62435;SDS011;48480;50.252;18.848;2023-04-05T06:02:40;47.10;;;24.50;;
62435;SDS011;48480;50.252;18.848;2023-04-05T06:05:05;45.80;;;25.30;;
62435;SDS011;48480;50.252;18.848;2023-04-05T06:07:34;47.40;;;24.40;;
62435;SDS011;48480;50.252;18.848;2023-04-05T06:10:00;54.00;;;27.40;;
62435;SDS011;48480;50.252;18.848;2023-04-05T06:12:26;53.30;;;27.40;;
62435;SDS011;48480;50.252;18.848;2023-04-05T06:14:51;47.90;;;25.50;;
62435;SDS011;48480;50.252;18.848;2023-04-05T06:17:17;57.60;;;27.90;;
62435;SDS011;48480;50.252;18.848;2023-04-05T06:19:42;60.90;;;29.70;;
62435;SDS011;48480;50.252;18.848;2023-04-05T06:22:08;58.00;;;30.00;;
62435;SDS011;48480;50.252;18.848;2023-04-05T06:24:33;61.20;;;29.80;;
62435;SDS011;48480;50.252;18.848;2023-04-05T06:26:58;60.40;;;29.90;;
62435;SDS011;48480;50.252;18.848;2023-04-05T06:29:24;57.20;;;31.70;;
62435;SDS011;48480;50.252;18.848;2023-04-05T06:31:50;62.30;;;32.50;;
62435;SDS011;48480;50.252;18.848;2023-04-05T06:34:15;64.20;;;32.20;;
62435;SDS011;48480;50.252;18.848;2023-04-05T06:36:40;58.30;;;28.70;;
62435;SDS011;48480;50.252;18.848;2023-04-05T06:39:07;60.30;;;30.30;;
62435;SDS011;48480;50.252;18.848;2023-04-05T06:41:32;51.40;;;28.00;;
62435;SDS011;48480;50.252;18.848;2023-04-05T06:43:57;57.70;;;30.10;;
62435;SDS011;48480;50.252;18.848;2023-04-05T06:46:23;54.50;;;29.70;;
62435;SDS011;48480;50.252;18.848;2023-04-05T06:48:50;56.30;;;32.70;;
62435;SDS011;48480;50.252;18.848;2023-04-05T06:51:15;53.20;;;31.80;;
62435;SDS011;48480;50.252;18.848;2023-04-05T06:53:42;55.60;;;33.10;;
62435;SDS011;48480;50.252;18.848;2023-04-05T06:56:09;59.30;;;35.50;;
62435;SDS011;48480;50.252;18.848;2023-04-05T06:58:35;65.70;;;34.90;;
62435;SDS011;48480;50.252;18.848;2023-04-05T07:01:01;55.40;;;33.90;;
62435;SDS011;48480;50.252;18.848;2023-04-05T07:03:27;58.40;;;34.30;;
62435;SDS011;48480;50.252;18.848;2023-04-05T07:05:53;59.20;;;35.90;;
62435;SDS011;48480;50.252;18.848;2023-04-05T07:08:21;56.30;;;35.10;;
62435;SDS011;48480;50.252;18.848;2023-04-05T07:10:47;59.50;;;34.20;;
62435;SDS011;48480;50.252;18.848;2023-04-05T07:13:14;56.60;;;34.80;;
62435;SDS011;48480;50.252;18.848;2023-04-05T07:15:41;61.30;;;37.10;;
62435;SDS011;48480;50.252;18.848;2023-04-05T07:18:07;54.80;;;34.00;;
62435;SDS011;48480;50.252;18.848;2023-04-05T07:20:33;54.00;;;33.70;;
62435;SDS011;48480;50.252;18.848;2023-04-05T07:22:58;53.60;;;33.60;;
62435;SDS011;48480;50.252;18.848;2023-04-05T07:25:24;52.80;;;33.10;;
62435;SDS011;48480;50.252;18.848;2023-04-05T07:27:49;51.50;;;31.50;;
62435;SDS011;48480;50.252;18.848;2023-04-05T07:30:17;58.10;;;33.40;;
62435;SDS011;48480;50.252;18.848;2023-04-05T07:32:46;49.20;;;30.50;;
62435;SDS011;48480;50.252;18.848;2023-04-05T07:35:12;37.10;;;22.30;;
62435;SDS011;48480;50.252;18.848;2023-04-05T07:37:37;35.80;;;21.30;;
62435;SDS011;48480;50.252;18.848;2023-04-05T07:40:03;31.60;;;20.60;;
62435;SDS011;48480;50.252;18.848;2023-04-05T07:42:30;32.40;;;19.00;;
62435;SDS011;48480;50.252;18.848;2023-04-05T07:44:56;38.40;;;21.10;;
62435;SDS011;48480;50.252;18.848;2023-04-05T07:47:22;25.50;;;15.30;;
62435;SDS011;48480;50.252;18.848;2023-04-05T07:49:48;34.60;;;20.20;;
62435;SDS011;48480;50.252;18.848;2023-04-05T07:52:13;34.00;;;20.70;;
62435;SDS011;48480;50.252;18.848;2023-04-05T07:54:39;32.40;;;20.40;;
62435;SDS011;48480;50.252;18.848;2023-04-05T07:57:07;29.10;;;18.00;;
62435;SDS011;48480;50.252;18.848;2023-04-05T07:59:40;31.10;;;19.10;;
62435;SDS011;48480;50.252;18.848;2023-04-05T08:02:05;26.30;;;14.90;;
62435;SDS011;48480;50.252;18.848;2023-04-05T08:04:31;18.80;;;11.20;;
62435;SDS011;48480;50.252;18.848;2023-04-05T08:06:57;56.50;;;26.80;;
62435;SDS011;48480;50.252;18.848;2023-04-05T08:09:22;18.70;;;12.10;;
62435;SDS011;48480;50.252;18.848;2023-04-05T08:11:48;14.10;;;9.00;;
62435;SDS011;48480;50.252;18.848;2023-04-05T08:14:13;20.70;;;13.00;;
62435;SDS011;48480;50.252;18.848;2023-04-05T08:16:38;19.10;;;12.00;;
62435;SDS011;48480;50.252;18.848;2023-04-05T08:19:04;13.10;;;8.60;;
62435;SDS011;48480;50.252;18.848;2023-04-05T08:21:29;15.00;;;6.90;;
62435;SDS011;48480;50.252;18.848;2023-04-05T08:23:55;9.90;;;6.40;;
62435;SDS011;48480;50.252;18.848;2023-04-05T08:26:22;10.50;;;6.30;;
62435;SDS011;48480;50.252;18.848;2023-04-05T08:28:48;12.30;;;6.30;;
62435;SDS011;48480;50.252;18.848;2023-04-05T08:31:13;8.00;;;5.20;;
62435;SDS011;48480;50.252;18.848;2023-04-05T08:33:38;9.70;;;5.40;;
62435;SDS011;48480;50.252;18.848;2023-04-05T08:36:07;9.80;;;6.20;;
62435;SDS011;48480;50.252;18.848;2023-04-05T08:38:34;9.10;;;5.80;;
62435;SDS011;48480;50.252;18.848;2023-04-05T08:41:34;10.90;;;5.90;;
62435;SDS011;48480;50.252;18.848;2023-04-05T08:43:56;7.70;;;5.20;;
62435;SDS011;48480;50.252;18.848;2023-04-05T08:46:24;8.80;;;5.80;;
62435;SDS011;48480;50.252;18.848;2023-04-05T08:48:51;11.10;;;6.00;;
62435;SDS011;48480;50.252;18.848;2023-04-05T08:51:20;8.80;;;4.70;;
62435;SDS011;48480;50.252;18.848;2023-04-05T08:53:47;5.30;;;3.60;;
62435;SDS011;48480;50.252;18.848;2023-04-05T08:56:20;8.60;;;4.50;;
62435;SDS011;48480;50.252;18.848;2023-04-05T09:01:31;8.80;;;5.00;;
62435;SDS011;48480;50.252;18.848;2023-04-05T09:04:00;8.00;;;4.40;;
62435;SDS011;48480;50.252;18.848;2023-04-05T09:06:30;5.50;;;2.90;;
62435;SDS011;48480;50.252;18.848;2023-04-05T09:08:56;6.20;;;3.40;;
62435;SDS011;48480;50.252;18.848;2023-04-05T09:11:22;6.20;;;2.90;;
62435;SDS011;48480;50.252;18.848;2023-04-05T09:13:49;9.20;;;4.60;;
62435;SDS011;48480;50.252;18.848;2023-04-05T09:16:15;8.40;;;4.10;;
62435;SDS011;48480;50.252;18.848;2023-04-05T09:18:41;5.50;;;3.60;;
62435;SDS011;48480;50.252;18.848;2023-04-05T09:21:07;7.40;;;4.10;;
62435;SDS011;48480;50.252;18.848;2023-04-05T09:23:34;8.40;;;5.50;;
62435;SDS011;48480;50.252;18.848;2023-04-05T09:26:15;7.10;;;3.90;;
62435;SDS011;48480;50.252;18.848;2023-04-05T09:28:42;12.30;;;6.00;;
62435;SDS011;48480;50.252;18.848;2023-04-05T09:31:08;6.70;;;3.90;;
62435;SDS011;48480;50.252;18.848;2023-04-05T09:33:33;27.80;;;24.10;;
62435;SDS011;48480;50.252;18.848;2023-04-05T09:36:00;12.00;;;8.30;;
62435;SDS011;48480;50.252;18.848;2023-04-05T09:38:47;8.30;;;5.70;;
62435;SDS011;48480;50.252;18.848;2023-04-05T09:41:12;7.10;;;5.20;;
62435;SDS011;48480;50.252;18.848;2023-04-05T09:43:38;10.80;;;4.70;;
62435;SDS011;48480;50.252;18.848;2023-04-05T09:46:04;9.10;;;5.10;;
62435;SDS011;48480;50.252;18.848;2023-04-05T09:48:44;10.60;;;5.20;;
62435;SDS011;48480;50.252;18.848;2023-04-05T09:51:11;7.60;;;4.50;;
62435;SDS011;48480;50.252;18.848;2023-04-05T09:53:41;7.70;;;4.50;;
62435;SDS011;48480;50.252;18.848;2023-04-05T09:56:25;7.40;;;4.40;;
62435;SDS011;48480;50.252;18.848;2023-04-05T09:58:51;8.40;;;5.20;;
62435;SDS011;48480;50.252;18.848;2023-04-05T10:01:18;14.70;;;8.00;;
62435;SDS011;48480;50.252;18.848;2023-04-05T10:03:46;17.20;;;8.40;;
62435;SDS011;48480;50.252;18.848;2023-04-05T10:06:16;7.50;;;3.90;;
62435;SDS011;48480;50.252;18.848;2023-04-05T10:08:43;5.50;;;3.90;;
62435;SDS011;48480;50.252;18.848;2023-04-05T10:11:13;6.10;;;2.90;;
62435;SDS011;48480;50.252;18.848;2023-04-05T10:13:48;7.00;;;3.40;;
62435;SDS011;48480;50.252;18.848;2023-04-05T10:16:16;6.70;;;3.80;;
62435;SDS011;48480;50.252;18.848;2023-04-05T10:18:51;6.70;;;3.80;;
62435;SDS011;48480;50.252;18.848;2023-04-05T10:21:21;8.80;;;4.30;;
62435;SDS011;48480;50.252;18.848;2023-04-05T10:23:58;8.00;;;4.30;;
62435;SDS011;48480;50.252;18.848;2023-04-05T10:26:39;6.60;;;4.30;;
62435;SDS011;48480;50.252;18.848;2023-04-05T10:29:24;6.30;;;3.90;;
62435;SDS011;48480;50.252;18.848;2023-04-05T10:32:04;5.60;;;3.40;;
62435;SDS011;48480;50.252;18.848;2023-04-05T10:34:40;6.30;;;3.60;;
62435;SDS011;48480;50.252;18.848;2023-04-05T10:37:12;6.00;;;3.10;;
62435;SDS011;48480;50.252;18.848;2023-04-05T10:39:52;8.10;;;3.90;;
62435;SDS011;48480;50.252;18.848;2023-04-05T10:42:21;5.50;;;3.40;;
62435;SDS011;48480;50.252;18.848;2023-04-05T10:44:57;8.10;;;3.00;;
62435;SDS011;48480;50.252;18.848;2023-04-05T10:47:30;7.10;;;3.20;;
62435;SDS011;48480;50.252;18.848;2023-04-05T10:50:02;5.60;;;3.80;;
62435;SDS011;48480;50.252;18.848;2023-04-05T10:52:28;7.30;;;4.40;;
62435;SDS011;48480;50.252;18.848;2023-04-05T10:54:54;6.20;;;3.90;;
62435;SDS011;48480;50.252;18.848;2023-04-05T10:57:23;6.90;;;3.40;;
62435;SDS011;48480;50.252;18.848;2023-04-05T10:59:49;6.40;;;4.10;;
62435;SDS011;48480;50.252;18.848;2023-04-05T11:02:16;6.90;;;4.40;;
62435;SDS011;48480;50.252;18.848;2023-04-05T11:04:43;8.30;;;3.80;;
62435;SDS011;48480;50.252;18.848;2023-04-05T11:09:39;4.20;;;2.70;;
62435;SDS011;48480;50.252;18.848;2023-04-05T11:12:15;4.60;;;3.30;;
62435;SDS011;48480;50.252;18.848;2023-04-05T11:14:40;3.50;;;2.40;;
62435;SDS011;48480;50.252;18.848;2023-04-05T11:17:25;4.50;;;2.80;;
62435;SDS011;48480;50.252;18.848;2023-04-05T11:20:13;3.80;;;2.50;;
62435;SDS011;48480;50.252;18.848;2023-04-05T11:22:39;3.90;;;2.60;;
62435;SDS011;48480;50.252;18.848;2023-04-05T11:25:04;5.50;;;2.50;;
62435;SDS011;48480;50.252;18.848;2023-04-05T11:27:31;4.70;;;2.80;;
62435;SDS011;48480;50.252;18.848;2023-04-05T11:29:59;7.90;;;3.30;;
62435;SDS011;48480;50.252;18.848;2023-04-05T11:32:38;7.00;;;3.30;;
62435;SDS011;48480;50.252;18.848;2023-04-05T11:35:06;9.50;;;4.20;;
62435;SDS011;48480;50.252;18.848;2023-04-05T11:43:01;10.60;;;3.50;;
62435;SDS011;48480;50.252;18.848;2023-04-05T11:45:30;5.90;;;2.70;;
62435;SDS011;48480;50.252;18.848;2023-04-05T11:50:30;5.70;;;3.80;;
62435;SDS011;48480;50.252;18.848;2023-04-05T11:53:07;7.70;;;2.90;;
62435;SDS011;48480;50.252;18.848;2023-04-05T11:55:34;4.60;;;2.70;;
62435;SDS011;48480;50.252;18.848;2023-04-05T11:58:00;5.60;;;3.10;;
62435;SDS011;48480;50.252;18.848;2023-04-05T12:00:29;6.60;;;3.20;;
62435;SDS011;48480;50.252;18.848;2023-04-05T12:02:55;6.70;;;3.20;;
62435;SDS011;48480;50.252;18.848;2023-04-05T12:05:21;7.30;;;3.40;;
62435;SDS011;48480;50.252;18.848;2023-04-05T12:07:51;5.60;;;3.20;;
62435;SDS011;48480;50.252;18.848;2023-04-05T12:10:21;5.70;;;3.60;;
62435;SDS011;48480;50.252;18.848;2023-04-05T12:12:46;6.30;;;3.70;;
62435;SDS011;48480;50.252;18.848;2023-04-05T12:15:13;5.60;;;3.30;;
62435;SDS011;48480;50.252;18.848;2023-04-05T12:17:44;4.70;;;2.90;;
62435;SDS011;48480;50.252;18.848;2023-04-05T12:20:18;5.10;;;2.80;;
62435;SDS011;48480;50.252;18.848;2023-04-05T12:22:48;5.10;;;2.80;;
62435;SDS011;48480;50.252;18.848;2023-04-05T12:25:16;5.90;;;3.20;;
62435;SDS011;48480;50.252;18.848;2023-04-05T12:27:43;5.20;;;3.30;;
62435;SDS011;48480;50.252;18.848;2023-04-05T12:32:44;6.60;;;3.20;;
62435;SDS011;48480;50.252;18.848;2023-04-05T12:35:15;5.30;;;3.10;;
62435;SDS011;48480;50.252;18.848;2023-04-05T12:37:51;6.70;;;3.50;;
62435;SDS011;48480;50.252;18.848;2023-04-05T12:40:20;4.80;;;2.60;;
62435;SDS011;48480;50.252;18.848;2023-04-05T12:42:47;4.80;;;2.90;;
62435;SDS011;48480;50.252;18.848;2023-04-05T12:45:13;5.50;;;3.00;;
62435;SDS011;48480;50.252;18.848;2023-04-05T12:50:17;4.30;;;2.60;;
62435;SDS011;48480;50.252;18.848;2023-04-05T12:55:25;6.80;;;2.90;;
62435;SDS011;48480;50.252;18.848;2023-04-05T12:58:00;5.20;;;3.30;;
62435;SDS011;48480;50.252;18.848;2023-04-05T13:00:28;6.00;;;3.00;;
62435;SDS011;48480;50.252;18.848;2023-04-05T13:02:55;7.00;;;3.70;;
62435;SDS011;48480;50.252;18.848;2023-04-05T13:05:23;5.30;;;3.00;;
62435;SDS011;48480;50.252;18.848;2023-04-05T13:07:53;5.00;;;3.30;;
62435;SDS011;48480;50.252;18.848;2023-04-05T13:10:19;6.80;;;3.10;;
62435;SDS011;48480;50.252;18.848;2023-04-05T13:12:45;7.30;;;3.30;;
62435;SDS011;48480;50.252;18.848;2023-04-05T13:15:11;56.10;;;32.90;;
62435;SDS011;48480;50.252;18.848;2023-04-05T13:17:38;8.90;;;4.90;;
62435;SDS011;48480;50.252;18.848;2023-04-05T13:20:05;64.30;;;30.60;;
62435;SDS011;48480;50.252;18.848;2023-04-05T13:22:31;16.20;;;9.80;;
62435;SDS011;48480;50.252;18.848;2023-04-05T13:24:56;6.60;;;4.00;;
62435;SDS011;48480;50.252;18.848;2023-04-05T13:27:22;8.10;;;3.70;;
62435;SDS011;48480;50.252;18.848;2023-04-05T13:29:47;4.60;;;2.90;;
62435;SDS011;48480;50.252;18.848;2023-04-05T13:32:13;4.60;;;2.90;;
62435;SDS011;48480;50.252;18.848;2023-04-05T13:34:39;7.20;;;3.40;;
62435;SDS011;48480;50.252;18.848;2023-04-05T13:37:04;7.90;;;3.60;;
62435;SDS011;48480;50.252;18.848;2023-04-05T13:39:30;7.00;;;2.80;;
62435;SDS011;48480;50.252;18.848;2023-04-05T13:41:55;5.80;;;3.70;;
62435;SDS011;48480;50.252;18.848;2023-04-05T13:44:21;5.90;;;3.10;;
62435;SDS011;48480;50.252;18.848;2023-04-05T13:46:48;5.60;;;3.00;;
62435;SDS011;48480;50.252;18.848;2023-04-05T13:49:14;5.70;;;3.20;;
62435;SDS011;48480;50.252;18.848;2023-04-05T13:51:39;10.40;;;5.50;;
62435;SDS011;48480;50.252;18.848;2023-04-05T13:54:08;5.40;;;2.80;;
62435;SDS011;48480;50.252;18.848;2023-04-05T13:56:36;6.20;;;3.00;;
62435;SDS011;48480;50.252;18.848;2023-04-05T13:59:02;6.40;;;3.60;;
62435;SDS011;48480;50.252;18.848;2023-04-05T14:01:28;5.40;;;3.40;;
62435;SDS011;48480;50.252;18.848;2023-04-05T14:03:53;8.80;;;4.80;;
62435;SDS011;48480;50.252;18.848;2023-04-05T14:06:19;7.20;;;4.00;;
62435;SDS011;48480;50.252;18.848;2023-04-05T14:08:45;5.50;;;3.00;;
62435;SDS011;48480;50.252;18.848;2023-04-05T14:11:10;8.30;;;4.10;;
62435;SDS011;48480;50.252;18.848;2023-04-05T14:13:36;6.30;;;4.20;;
62435;SDS011;48480;50.252;18.848;2023-04-05T14:16:01;11.30;;;5.50;;
62435;SDS011;48480;50.252;18.848;2023-04-05T14:18:27;9.70;;;6.10;;
62435;SDS011;48480;50.252;18.848;2023-04-05T14:20:53;9.60;;;5.50;;
62435;SDS011;48480;50.252;18.848;2023-04-05T14:23:22;9.00;;;4.60;;
62435;SDS011;48480;50.252;18.848;2023-04-05T14:25:47;6.70;;;3.90;;
62435;SDS011;48480;50.252;18.848;2023-04-05T14:28:13;8.90;;;4.10;;
62435;SDS011;48480;50.252;18.848;2023-04-05T14:30:38;6.70;;;3.20;;
62435;SDS011;48480;50.252;18.848;2023-04-05T14:33:04;5.40;;;3.40;;
62435;SDS011;48480;50.252;18.848;2023-04-05T14:35:30;6.40;;;3.40;;
62435;SDS011;48480;50.252;18.848;2023-04-05T14:37:55;6.90;;;3.60;;
62435;SDS011;48480;50.252;18.848;2023-04-05T14:40:21;6.40;;;3.90;;
62435;SDS011;48480;50.252;18.848;2023-04-05T14:42:46;7.20;;;4.90;;
62435;SDS011;48480;50.252;18.848;2023-04-05T14:45:12;8.30;;;5.60;;
62435;SDS011;48480;50.252;18.848;2023-04-05T14:47:37;7.30;;;3.90;;
62435;SDS011;48480;50.252;18.848;2023-04-05T14:50:03;5.60;;;3.70;;
62435;SDS011;48480;50.252;18.848;2023-04-05T14:52:32;5.10;;;3.40;;
62435;SDS011;48480;50.252;18.848;2023-04-05T14:54:58;5.50;;;3.10;;
62435;SDS011;48480;50.252;18.848;2023-04-05T14:57:23;5.00;;;3.30;;
62435;SDS011;48480;50.252;18.848;2023-04-05T14:59:49;7.40;;;3.40;;